^^
Your Local Weather - Clay, NY Station Historical Data
Daily Summary for February 13, 2017 Units:  English    Metric   Both
« Previous Day
Next Day »
Daily Weekly Monthly Yearly Custom
  High: Low: Average:
Temperature: 31.7 °F 24.3 °F 26.7 °F
Dew Point: 30.2 °F 20.6 °F 23.7 °F
Humidity: 94% 80% 88%
Wind Speed: 6.0mph 0.0mph 3.2mph
Wind Gust: 15.0mph - -
Wind- - NW
Pressure: 30.03 in 29.61 in -
Precipitation: 0.00 in    
Historical Graphs
 
 
Tabular Data for February 13, 2017
Time Temperature Dew Point Pressure Wind Wind Speed Wind Gust Humidity Rainfall Rate (Hourly) solar
00:04 31.6 °F 29.8 °F 29.61 in WNW 4.0 mph 5.0 mph 93% 0.00 in 0 W/m2
00:10 31.5 °F 29.7 °F 29.62 in WNW 4.0 mph 4.0 mph 93% 0.00 in 0 W/m2
00:16 31.5 °F 29.7 °F 29.62 in WNW 3.0 mph 5.0 mph 93% 0.00 in 0 W/m2
00:22 31.5 °F 29.7 °F 29.62 in WNW 3.0 mph 3.0 mph 93% 0.00 in 0 W/m2
00:28 31.7 °F 30.2 °F 29.62 in WNW 4.0 mph 10.0 mph 94% 0.00 in 0 W/m2
00:34 31.7 °F 29.9 °F 29.62 in WNW 6.0 mph 6.0 mph 93% 0.00 in 0 W/m2
00:40 31.6 °F 29.8 °F 29.62 in NNW 5.0 mph 6.0 mph 93% 0.00 in 0 W/m2
00:46 31.4 °F 29.6 °F 29.63 in WNW 4.0 mph 6.0 mph 93% 0.00 in 0 W/m2
00:52 31.3 °F 29.5 °F 29.63 in WNW 3.0 mph 5.0 mph 93% 0.00 in 0 W/m2
00:58 31.3 °F 29.5 °F 29.63 in WNW 3.0 mph 5.0 mph 93% 0.00 in 0 W/m2
01:04 31.3 °F 29.5 °F 29.63 in West 3.0 mph 5.0 mph 93% 0.00 in 0 W/m2
01:10 31.3 °F 29.8 °F 29.64 in WNW 3.0 mph 3.0 mph 94% 0.00 in 0 W/m2
01:16 31.1 °F 29.6 °F 29.64 in NW 4.0 mph 4.0 mph 94% 0.00 in 0 W/m2
01:22 31.0 °F 29.2 °F 29.64 in WNW 4.0 mph 4.0 mph 93% 0.00 in 0 W/m2
01:28 30.9 °F 29.1 °F 29.64 in WNW 4.0 mph 4.0 mph 93% 0.00 in 0 W/m2
01:34 30.8 °F 29.3 °F 29.65 in WNW 4.0 mph 5.0 mph 94% 0.00 in 0 W/m2
01:40 30.8 °F 29.3 °F 29.65 in West 4.0 mph 4.0 mph 94% 0.00 in 0 W/m2
01:46 30.7 °F 29.2 °F 29.65 in WNW 4.0 mph 8.0 mph 94% 0.00 in 0 W/m2
01:52 30.5 °F 28.7 °F 29.65 in West 6.0 mph 7.0 mph 93% 0.00 in 0 W/m2
01:58 30.5 °F 28.7 °F 29.65 in NW 6.0 mph 15.0 mph 93% 0.00 in 0 W/m2
02:04 30.4 °F 28.9 °F 29.66 in WNW 6.0 mph 7.0 mph 94% 0.00 in 0 W/m2
02:10 30.3 °F 28.8 °F 29.67 in WNW 5.0 mph 5.0 mph 94% 0.00 in 0 W/m2
02:16 30.3 °F 28.8 °F 29.67 in WSW 5.0 mph 9.0 mph 94% 0.00 in 0 W/m2
02:22 30.3 °F 28.8 °F 29.67 in NNW 5.0 mph 5.0 mph 94% 0.00 in 0 W/m2
02:28 30.0 °F 28.5 °F 29.68 in WNW 5.0 mph 5.0 mph 94% 0.00 in 0 W/m2
02:34 29.8 °F 28.3 °F 29.68 in NNW 5.0 mph 9.0 mph 94% 0.00 in 0 W/m2
02:40 29.6 °F 28.1 °F 29.68 in NW 5.0 mph 5.0 mph 94% 0.00 in 0 W/m2
02:46 29.4 °F 27.6 °F 29.68 in NW 5.0 mph 9.0 mph 93% 0.00 in 0 W/m2
02:52 29.3 °F 27.8 °F 29.68 in NW 5.0 mph 5.0 mph 94% 0.00 in 0 W/m2
02:58 29.1 °F 27.6 °F 29.68 in WNW 4.0 mph 5.0 mph 94% 0.00 in 0 W/m2
03:04 29.0 °F 27.5 °F 29.68 in WNW 4.0 mph 5.0 mph 94% 0.00 in 0 W/m2
03:10 29.0 °F 27.5 °F 29.69 in NW 4.0 mph 4.0 mph 94% 0.00 in 0 W/m2
03:16 29.0 °F 27.5 °F 29.69 in NW 4.0 mph 6.0 mph 94% 0.00 in 0 W/m2
03:22 29.0 °F 27.5 °F 29.70 in WNW 4.0 mph 4.0 mph 94% 0.00 in 0 W/m2
03:28 28.9 °F 27.4 °F 29.70 in NNW 5.0 mph 6.0 mph 94% 0.00 in 0 W/m2
03:34 28.9 °F 27.4 °F 29.71 in NNW 4.0 mph 7.0 mph 94% 0.00 in 0 W/m2
03:40 28.5 °F 27.0 °F 29.71 in NW 3.0 mph 4.0 mph 94% 0.00 in 0 W/m2
03:46 28.1 °F 26.3 °F 29.72 in NW 4.0 mph 6.0 mph 93% 0.00 in 0 W/m2
03:52 27.8 °F 26.3 °F 29.72 in NW 3.0 mph 3.0 mph 94% 0.00 in 0 W/m2
03:58 27.6 °F 25.8 °F 29.73 in NW 2.0 mph 6.0 mph 93% 0.00 in 0 W/m2
04:04 27.3 °F 25.8 °F 29.73 in NNW 3.0 mph 3.0 mph 94% 0.00 in 0 W/m2
04:10 27.0 °F 25.2 °F 29.73 in North 4.0 mph 8.0 mph 93% 0.00 in 0 W/m2
04:16 26.7 °F 24.9 °F 29.74 in NW 5.0 mph 8.0 mph 93% 0.00 in 0 W/m2
04:22 26.6 °F 24.8 °F 29.75 in NNW 4.0 mph 5.0 mph 93% 0.00 in 0 W/m2
04:28 26.5 °F 24.8 °F 29.75 in NW 3.0 mph 8.0 mph 93% 0.00 in 0 W/m2
04:34 26.5 °F 24.8 °F 29.75 in NNW 4.0 mph 4.0 mph 93% 0.00 in 0 W/m2
04:40 26.4 °F 24.7 °F 29.76 in NW 3.0 mph 3.0 mph 93% 0.00 in 0 W/m2
04:46 26.3 °F 24.6 °F 29.76 in NNW 4.0 mph 4.0 mph 93% 0.00 in 0 W/m2
04:52 26.1 °F 24.4 °F 29.77 in NW 5.0 mph 5.0 mph 93% 0.00 in 0 W/m2
04:58 25.9 °F 24.2 °F 29.78 in NW 4.0 mph 6.0 mph 93% 0.00 in 0 W/m2
05:04 25.8 °F 24.1 °F 29.78 in NNW 4.0 mph 7.0 mph 93% 0.00 in 0 W/m2
05:10 25.7 °F 24.0 °F 29.79 in WNW 4.0 mph 4.0 mph 93% 0.00 in 0 W/m2
05:16 25.6 °F 23.9 °F 29.79 in NW 4.0 mph 5.0 mph 93% 0.00 in 0 W/m2
05:22 25.5 °F 23.8 °F 29.79 in NW 3.0 mph 4.0 mph 93% 0.00 in 0 W/m2
05:28 25.4 °F 23.7 °F 29.80 in NNW 4.0 mph 5.0 mph 93% 0.00 in 0 W/m2
05:34 25.2 °F 23.5 °F 29.80 in WNW 4.0 mph 6.0 mph 93% 0.00 in 0 W/m2
05:40 25.1 °F 23.4 °F 29.81 in WNW 4.0 mph 4.0 mph 93% 0.00 in 0 W/m2
05:46 24.9 °F 23.2 °F 29.81 in WNW 4.0 mph 4.0 mph 93% 0.00 in 0 W/m2
05:52 24.8 °F 23.1 °F 29.82 in NW 4.0 mph 5.0 mph 93% 0.00 in 0 W/m2
05:58 24.7 °F 23.0 °F 29.82 in NW 4.0 mph 5.0 mph 93% 0.00 in 0 W/m2
06:04 24.6 °F 22.9 °F 29.82 in NW 4.0 mph 6.0 mph 93% 0.00 in 0 W/m2
06:10 24.6 °F 22.9 °F 29.83 in NW 4.0 mph 4.0 mph 93% 0.00 in 0 W/m2
06:16 24.5 °F 22.8 °F 29.83 in NW 3.0 mph 5.0 mph 93% 0.00 in 0 W/m2
06:22 24.5 °F 22.8 °F 29.84 in WNW 3.0 mph 4.0 mph 93% 0.00 in 0 W/m2
06:28 24.4 °F 22.7 °F 29.84 in WNW 3.0 mph 4.0 mph 93% 0.00 in 0 W/m2
06:34 24.4 °F 22.7 °F 29.85 in WNW 4.0 mph 5.0 mph 93% 0.00 in 0 W/m2
06:40 24.4 °F 22.7 °F 29.85 in NW 4.0 mph 4.0 mph 93% 0.00 in 0 W/m2
06:46 24.3 °F 22.3 °F 29.86 in North 3.0 mph 4.0 mph 92% 0.00 in 0 W/m2
06:52 24.3 °F 22.3 °F 29.86 in NNW 3.0 mph 5.0 mph 92% 0.00 in 0 W/m2
06:58 24.3 °F 22.3 °F 29.86 in NW 3.0 mph 5.0 mph 92% 0.00 in 0 W/m2
07:04 24.3 °F 22.3 °F 29.87 in NW 3.0 mph 3.0 mph 92% 0.00 in 0 W/m2
07:10 24.4 °F 22.4 °F 29.87 in NW 3.0 mph 3.0 mph 92% 0.00 in 0 W/m2
07:16 24.4 °F 22.4 °F 29.88 in WNW 2.0 mph 3.0 mph 92% 0.00 in 0 W/m2
07:22 24.5 °F 22.5 °F 29.88 in NNW 2.0 mph 3.0 mph 92% 0.00 in 0 W/m2
07:28 24.6 °F 22.6 °F 29.89 in WNW 3.0 mph 4.0 mph 92% 0.00 in 0 W/m2
07:34 24.6 °F 22.6 °F 29.89 in NW 3.0 mph 6.0 mph 92% 0.00 in 0 W/m2
07:40 24.6 °F 22.6 °F 29.89 in WNW 3.0 mph 3.0 mph 92% 0.00 in 0 W/m2
07:46 24.7 °F 22.7 °F 29.90 in NW 3.0 mph 3.0 mph 92% 0.00 in 0 W/m2
07:52 24.7 °F 22.7 °F 29.90 in NW 2.0 mph 3.0 mph 92% 0.00 in 0 W/m2
07:58 24.7 °F 22.7 °F 29.90 in NW 4.0 mph 4.0 mph 92% 0.00 in 0 W/m2
08:04 24.7 °F 22.7 °F 29.90 in NW 4.0 mph 4.0 mph 92% 0.00 in 5 W/m2
08:10 24.7 °F 22.7 °F 29.90 in NNW 4.0 mph 4.0 mph 92% 0.00 in 5 W/m2
08:16 24.8 °F 22.8 °F 29.91 in WNW 3.0 mph 6.0 mph 92% 0.00 in 7 W/m2
08:22 24.8 °F 22.8 °F 29.91 in NW 3.0 mph 6.0 mph 92% 0.00 in 9 W/m2
08:28 24.8 °F 22.8 °F 29.91 in NNW 4.0 mph 7.0 mph 92% 0.00 in 11 W/m2
08:36 24.9 °F 22.6 °F 29.92 in NW 5.0 mph 8.0 mph 91% 0.00 in 14 W/m2
08:42 25.0 °F 22.7 °F 29.92 in NW 5.0 mph 8.0 mph 91% 0.00 in 14 W/m2
08:48 25.0 °F 22.7 °F 29.92 in NW 5.0 mph 8.0 mph 91% 0.00 in 14 W/m2
08:54 25.1 °F 22.8 °F 29.92 in NNW 4.0 mph 4.0 mph 91% 0.00 in 16 W/m2
09:00 25.1 °F 22.8 °F 29.93 in WNW 3.0 mph 3.0 mph 91% 0.00 in 14 W/m2
09:06 25.1 °F 22.6 °F 29.93 in NW 4.0 mph 4.0 mph 90% 0.00 in 16 W/m2
09:12 25.1 °F 22.6 °F 29.93 in NNW 4.0 mph 4.0 mph 90% 0.00 in 16 W/m2
09:18 25.2 °F 22.7 °F 29.93 in NW 4.0 mph 5.0 mph 90% 0.00 in 19 W/m2
09:24 25.3 °F 22.8 °F 29.93 in West 4.0 mph 5.0 mph 90% 0.00 in 21 W/m2
09:30 25.4 °F 22.9 °F 29.94 in WNW 4.0 mph 4.0 mph 90% 0.00 in 16 W/m2
09:36 25.4 °F 22.6 °F 29.94 in NW 6.0 mph 7.0 mph 89% 0.00 in 18 W/m2
09:42 25.3 °F 22.2 °F 29.95 in NW 6.0 mph 6.0 mph 88% 0.00 in 21 W/m2
09:48 25.4 °F 22.3 °F 29.95 in NW 5.0 mph 6.0 mph 88% 0.00 in 21 W/m2
09:54 25.4 °F 22.3 °F 29.95 in NW 5.0 mph 6.0 mph 88% 0.00 in 25 W/m2
10:00 25.4 °F 22.3 °F 29.95 in NNW 5.0 mph 5.0 mph 88% 0.00 in 26 W/m2
10:06 25.6 °F 22.5 °F 29.95 in NNW 5.0 mph 8.0 mph 88% 0.00 in 21 W/m2
10:12 25.8 °F 22.7 °F 29.95 in NW 4.0 mph 6.0 mph 88% 0.00 in 26 W/m2
10:18 26.0 °F 22.9 °F 29.95 in NW 4.0 mph 6.0 mph 88% 0.00 in 33 W/m2
10:24 26.2 °F 23.1 °F 29.95 in NW 4.0 mph 6.0 mph 88% 0.00 in 35 W/m2
10:30 26.4 °F 23.3 °F 29.95 in NW 4.0 mph 4.0 mph 88% 0.00 in 37 W/m2
10:36 26.5 °F 23.2 °F 29.95 in WNW 4.0 mph 6.0 mph 87% 0.00 in 37 W/m2
10:42 26.6 °F 23.3 °F 29.95 in NNW 4.0 mph 12.0 mph 87% 0.00 in 37 W/m2
10:48 26.6 °F 23.3 °F 29.95 in NW 5.0 mph 12.0 mph 87% 0.00 in 37 W/m2
10:54 26.5 °F 22.6 °F 29.95 in NW 6.0 mph 9.0 mph 85% 0.00 in 39 W/m2
11:00 26.5 °F 22.6 °F 29.95 in NNW 6.0 mph 6.0 mph 85% 0.00 in 39 W/m2
11:06 26.6 °F 23.0 °F 29.95 in NNE 6.0 mph 6.0 mph 86% 0.00 in 35 W/m2
11:12 26.8 °F 22.9 °F 29.96 in North 5.0 mph 8.0 mph 85% 0.00 in 39 W/m2
11:18 26.9 °F 23.0 °F 29.96 in NNW 5.0 mph 8.0 mph 85% 0.00 in 37 W/m2
11:24 27.1 °F 23.2 °F 29.95 in NW 5.0 mph 6.0 mph 85% 0.00 in 40 W/m2
11:30 27.2 °F 23.6 °F 29.96 in WNW 4.0 mph 4.0 mph 86% 0.00 in 37 W/m2
11:36 27.3 °F 23.7 °F 29.96 in NNW 4.0 mph 6.0 mph 86% 0.00 in 37 W/m2
11:42 27.1 °F 23.5 °F 29.96 in WNW 5.0 mph 8.0 mph 86% 0.00 in 39 W/m2
11:48 27.1 °F 23.5 °F 29.96 in NW 5.0 mph 8.0 mph 86% 0.00 in 33 W/m2
11:54 27.2 °F 23.8 °F 29.96 in NW 4.0 mph 11.0 mph 87% 0.00 in 33 W/m2
12:00 27.1 °F 23.7 °F 29.96 in NW 4.0 mph 5.0 mph 87% 0.00 in 30 W/m2
12:06 26.9 °F 23.8 °F 29.96 in WNW 4.0 mph 5.0 mph 88% 0.00 in 25 W/m2
12:12 27.0 °F 23.9 °F 29.96 in WNW 3.0 mph 3.0 mph 88% 0.00 in 21 W/m2
12:18 27.0 °F 24.2 °F 29.96 in NNW 3.0 mph 4.0 mph 89% 0.00 in 25 W/m2
12:24 27.1 °F 24.3 °F 29.96 in NW 3.0 mph 3.0 mph 89% 0.00 in 23 W/m2
12:30 27.1 °F 24.3 °F 29.96 in WNW 3.0 mph 3.0 mph 89% 0.00 in 23 W/m2
12:36 27.2 °F 24.4 °F 29.97 in WNW 3.0 mph 5.0 mph 89% 0.00 in 21 W/m2
12:42 27.1 °F 24.3 °F 29.97 in NW 3.0 mph 3.0 mph 89% 0.00 in 18 W/m2
12:48 27.1 °F 24.6 °F 29.97 in NNW 3.0 mph 3.0 mph 90% 0.00 in 18 W/m2
12:54 27.1 °F 24.6 °F 29.97 in NW 3.0 mph 5.0 mph 90% 0.00 in 18 W/m2
13:00 27.2 °F 24.7 °F 29.97 in NNW 2.0 mph 2.0 mph 90% 0.00 in 25 W/m2
13:06 27.5 °F 25.2 °F 29.97 in WNW 2.0 mph 4.0 mph 91% 0.00 in 26 W/m2
13:12 27.9 °F 25.6 °F 29.97 in WNW 2.0 mph 2.0 mph 91% 0.00 in 26 W/m2
13:18 28.0 °F 25.7 °F 29.97 in WNW 3.0 mph 8.0 mph 91% 0.00 in 21 W/m2
13:24 27.8 °F 25.2 °F 29.97 in WNW 4.0 mph 4.0 mph 90% 0.00 in 23 W/m2
13:30 27.9 °F 25.3 °F 29.97 in NW 3.0 mph 3.0 mph 90% 0.00 in 25 W/m2
13:36 28.1 °F 25.3 °F 29.97 in WNW 3.0 mph 6.0 mph 89% 0.00 in 19 W/m2
13:42 28.0 °F 24.9 °F 29.97 in NW 4.0 mph 4.0 mph 88% 0.00 in 16 W/m2
13:48 27.6 °F 24.2 °F 29.97 in WNW 5.0 mph 5.0 mph 87% 0.00 in 21 W/m2
13:54 27.4 °F 24.0 °F 29.98 in NNW 5.0 mph 8.0 mph 87% 0.00 in 26 W/m2
14:02 27.7 °F 24.1 °F 29.98 in WNW 5.0 mph 5.0 mph 86% 0.00 in 32 W/m2
14:08 27.9 °F 24.3 °F 29.98 in WNW 4.0 mph 7.0 mph 86% 0.00 in 30 W/m2
14:14 27.8 °F 23.6 °F 29.98 in NW 4.0 mph 7.0 mph 84% 0.00 in 35 W/m2
14:20 27.9 °F 23.7 °F 29.98 in WNW 5.0 mph 5.0 mph 84% 0.00 in 28 W/m2
14:26 27.8 °F 23.6 °F 29.99 in West 5.0 mph 7.0 mph 84% 0.00 in 19 W/m2
14:32 27.4 °F 23.2 °F 29.99 in West 5.0 mph 8.0 mph 84% 0.00 in 16 W/m2
14:38 27.2 °F 23.0 °F 29.99 in NW 4.0 mph 8.0 mph 84% 0.00 in 16 W/m2
14:44 27.1 °F 22.9 °F 30.00 in NW 4.0 mph 7.0 mph 84% 0.00 in 16 W/m2
14:50 27.1 °F 22.9 °F 30.00 in WNW 4.0 mph 4.0 mph 84% 0.00 in 19 W/m2
14:56 27.2 °F 23.0 °F 30.00 in WNW 3.0 mph 6.0 mph 84% 0.00 in 21 W/m2
15:02 27.2 °F 23.0 °F 30.00 in WNW 3.0 mph 4.0 mph 84% 0.00 in 19 W/m2
15:08 27.2 °F 23.0 °F 30.00 in WNW 4.0 mph 4.0 mph 84% 0.00 in 19 W/m2
15:14 27.1 °F 22.9 °F 30.00 in West 4.0 mph 7.0 mph 84% 0.00 in 18 W/m2
15:20 27.0 °F 22.5 °F 30.00 in NNW 4.0 mph 4.0 mph 83% 0.00 in 18 W/m2
15:28 26.9 °F 22.1 °F 30.01 in WNW 5.0 mph 13.0 mph 82% 0.00 in 18 W/m2
15:34 26.9 °F 22.1 °F 30.01 in NW 5.0 mph 8.0 mph 82% 0.00 in 14 W/m2
15:40 26.8 °F 21.8 °F 30.01 in NW 4.0 mph 6.0 mph 81% 0.00 in 14 W/m2
15:46 26.8 °F 21.8 °F 30.01 in WNW 5.0 mph 10.0 mph 81% 0.00 in 11 W/m2
15:52 26.7 °F 21.9 °F 30.02 in WNW 5.0 mph 5.0 mph 82% 0.00 in 9 W/m2
15:58 26.6 °F 21.8 °F 30.02 in NNW 5.0 mph 6.0 mph 82% 0.00 in 9 W/m2
16:04 26.5 °F 21.7 °F 30.02 in NNW 5.0 mph 5.0 mph 82% 0.00 in 7 W/m2
16:10 26.5 °F 22.0 °F 30.02 in WNW 4.0 mph 4.0 mph 83% 0.00 in 11 W/m2
16:16 26.6 °F 22.1 °F 30.02 in WNW 3.0 mph 5.0 mph 83% 0.00 in 9 W/m2
16:22 26.6 °F 22.1 °F 30.03 in WNW 3.0 mph 7.0 mph 83% 0.00 in 9 W/m2
16:28 26.7 °F 22.2 °F 30.03 in WNW 2.0 mph 7.0 mph 83% 0.00 in 7 W/m2
16:34 26.7 °F 22.2 °F 30.03 in NNW 3.0 mph 5.0 mph 83% 0.00 in 5 W/m2
16:38 26.6 °F 22.1 °F 30.03 in NW 3.0 mph 5.0 mph 83% 0.00 in 5 W/m2
16:44 26.6 °F 22.1 °F 30.03 in NW 3.0 mph 3.0 mph 83% 0.00 in 5 W/m2
16:50 26.4 °F 21.9 °F 30.03 in WNW 3.0 mph 3.0 mph 83% 0.00 in 0 W/m2
16:56 26.3 °F 22.1 °F 30.03 in WNW 4.0 mph 8.0 mph 84% 0.00 in 0 W/m2
17:02 26.1 °F 22.2 °F 30.03 in WNW 4.0 mph 4.0 mph 85% 0.00 in 0 W/m2
17:08 26.0 °F 22.1 °F 30.03 in NW 3.0 mph 4.0 mph 85% 0.00 in 0 W/m2
17:14 26.0 °F 22.4 °F 30.03 in WNW 3.0 mph 4.0 mph 86% 0.00 in 0 W/m2
17:20 26.0 °F 22.4 °F 30.03 in NNW 3.0 mph 4.0 mph 86% 0.00 in 0 W/m2
17:26 26.0 °F 22.4 °F 30.03 in North 3.0 mph 4.0 mph 86% 0.00 in 0 W/m2
17:32 26.0 °F 22.7 °F 30.03 in WNW 2.0 mph 3.0 mph 87% 0.00 in 0 W/m2
17:38 26.2 °F 22.6 °F 30.03 in WNW 3.0 mph 4.0 mph 86% 0.00 in 0 W/m2
17:44 26.4 °F 22.5 °F 30.03 in NW 3.0 mph 3.0 mph 85% 0.00 in 0 W/m2
17:50 26.5 °F 22.3 °F 30.03 in NW 3.0 mph 4.0 mph 84% 0.00 in 0 W/m2
17:56 26.5 °F 22.0 °F 30.03 in NW 4.0 mph 8.0 mph 83% 0.00 in 0 W/m2
18:04 26.6 °F 22.1 °F 30.03 in WNW 3.0 mph 4.0 mph 83% 0.00 in 0 W/m2
18:10 26.6 °F 21.8 °F 30.03 in NW 4.0 mph 4.0 mph 82% 0.00 in 0 W/m2
18:16 26.5 °F 21.7 °F 30.03 in NW 4.0 mph 4.0 mph 82% 0.00 in 0 W/m2
18:22 26.5 °F 22.0 °F 30.03 in WNW 2.0 mph 3.0 mph 83% 0.00 in 0 W/m2
18:28 26.5 °F 22.0 °F 30.03 in WNW 3.0 mph 4.0 mph 83% 0.00 in 0 W/m2
18:34 26.5 °F 21.7 °F 30.03 in WNW 3.0 mph 6.0 mph 82% 0.00 in 0 W/m2
18:40 26.5 °F 21.7 °F 30.03 in WNW 4.0 mph 4.0 mph 82% 0.00 in 0 W/m2
18:46 26.4 °F 21.7 °F 30.03 in WNW 3.0 mph 4.0 mph 82% 0.00 in 0 W/m2
18:52 26.4 °F 21.7 °F 30.03 in NW 3.0 mph 4.0 mph 82% 0.00 in 0 W/m2
18:58 26.4 °F 21.1 °F 30.03 in NW 4.0 mph 8.0 mph 80% 0.00 in 0 W/m2
19:04 26.3 °F 21.3 °F 30.03 in NNW 4.0 mph 6.0 mph 81% 0.00 in 0 W/m2
19:10 26.2 °F 21.2 °F 30.02 in WNW 3.0 mph 3.0 mph 81% 0.00 in 0 W/m2
19:16 26.2 °F 21.2 °F 30.03 in NW 3.0 mph 6.0 mph 81% 0.00 in 0 W/m2
19:22 26.2 °F 21.2 °F 30.03 in NW 3.0 mph 4.0 mph 81% 0.00 in 0 W/m2
19:28 26.2 °F 21.2 °F 30.03 in WNW 3.0 mph 6.0 mph 81% 0.00 in 0 W/m2
19:34 26.2 °F 20.9 °F 30.03 in NW 3.0 mph 3.0 mph 80% 0.00 in 0 W/m2
19:40 26.2 °F 20.9 °F 30.02 in NNW 3.0 mph 7.0 mph 80% 0.00 in 0 W/m2
19:46 26.2 °F 20.9 °F 30.02 in WNW 3.0 mph 7.0 mph 80% 0.00 in 0 W/m2
19:52 26.2 °F 20.9 °F 30.02 in NW 3.0 mph 3.0 mph 80% 0.00 in 0 W/m2
19:58 26.0 °F 20.7 °F 30.02 in NW 2.0 mph 3.0 mph 80% 0.00 in 0 W/m2
20:04 25.9 °F 20.6 °F 30.02 in NW 1.0 mph 1.0 mph 80% 0.00 in 0 W/m2
20:10 25.9 °F 20.9 °F 30.02 in NW 1.0 mph 1.0 mph 81% 0.00 in 0 W/m2
20:16 25.8 °F 20.8 °F 30.02 in NW 1.0 mph 2.0 mph 81% 0.00 in 0 W/m2
20:22 25.8 °F 20.8 °F 30.02 in WNW 1.0 mph 1.0 mph 81% 0.00 in 0 W/m2
20:28 25.8 °F 21.1 °F 30.02 in WNW 1.0 mph 1.0 mph 82% 0.00 in 0 W/m2
20:34 25.8 °F 21.1 °F 30.03 in Calm     82% 0.00 in 0 W/m2
20:40 25.8 °F 21.1 °F 30.02 in Calm     82% 0.00 in 0 W/m2
20:46 25.8 °F 21.1 °F 30.02 in Calm     82% 0.00 in 0 W/m2
20:52 25.7 °F 21.3 °F 30.02 in WNW 1.0 mph 2.0 mph 83% 0.00 in 0 W/m2
20:58 25.6 °F 21.2 °F 30.02 in WNW 1.0 mph 2.0 mph 83% 0.00 in 0 W/m2
21:04 25.5 °F 21.3 °F 30.02 in Calm     84% 0.00 in 0 W/m2
21:10 25.5 °F 21.3 °F 30.02 in Calm   1.0 mph 84% 0.00 in 0 W/m2
21:16 25.5 °F 21.3 °F 30.02 in Calm   2.0 mph 84% 0.00 in 0 W/m2
21:22 25.5 °F 21.6 °F 30.02 in WNW 1.0 mph 2.0 mph 85% 0.00 in 0 W/m2
21:28 25.5 °F 21.6 °F 30.02 in WNW 1.0 mph 3.0 mph 85% 0.00 in 0 W/m2
21:34 25.5 °F 21.9 °F 30.02 in WNW 1.0 mph 1.0 mph 86% 0.00 in 0 W/m2
21:40 25.5 °F 21.9 °F 30.02 in WNW 1.0 mph 1.0 mph 86% 0.00 in 0 W/m2
21:46 25.5 °F 21.9 °F 30.01 in WNW 1.0 mph 1.0 mph 86% 0.00 in 0 W/m2
21:52 25.5 °F 21.9 °F 30.02 in Calm     86% 0.00 in 0 W/m2
21:58 25.5 °F 21.9 °F 30.01 in Calm   1.0 mph 86% 0.00 in 0 W/m2
22:04 25.4 °F 21.8 °F 30.01 in WNW 1.0 mph 1.0 mph 86% 0.00 in 0 W/m2
22:12 25.4 °F 21.8 °F 30.01 in Calm     86% 0.00 in 0 W/m2
22:18 25.4 °F 21.8 °F 30.01 in Calm   2.0 mph 86% 0.00 in 0 W/m2
22:24 25.4 °F 21.8 °F 30.01 in Calm     86% 0.00 in 0 W/m2
22:30 25.4 °F 21.8 °F 30.01 in Calm     86% 0.00 in 0 W/m2
22:36 25.3 °F 21.7 °F 30.01 in Calm     86% 0.00 in 0 W/m2
22:42 25.3 °F 21.7 °F 30.01 in Calm     86% 0.00 in 0 W/m2
22:48 25.3 °F 21.7 °F 30.01 in Calm     86% 0.00 in 0 W/m2
22:54 25.3 °F 22.0 °F 30.01 in Calm   2.0 mph 87% 0.00 in 0 W/m2
23:00 25.2 °F 21.9 °F 30.01 in Calm   1.0 mph 87% 0.00 in 0 W/m2
23:06 25.2 °F 21.9 °F 30.00 in Calm   1.0 mph 87% 0.00 in 0 W/m2
23:12 25.2 °F 21.9 °F 30.00 in Calm     87% 0.00 in 0 W/m2
23:18 25.2 °F 21.9 °F 30.00 in Calm     87% 0.00 in 0 W/m2
23:22 25.1 °F 21.8 °F 30.00 in Calm   1.0 mph 87% 0.00 in 0 W/m2
23:28 25.1 °F 21.8 °F 30.00 in Calm   1.0 mph 87% 0.00 in 0 W/m2
23:34 25.1 °F 21.8 °F 29.99 in Calm   1.0 mph 87% 0.00 in 0 W/m2
23:40 25.1 °F 21.8 °F 29.99 in Calm     87% 0.00 in 0 W/m2
23:46 25.1 °F 21.8 °F 29.99 in Calm     87% 0.00 in 0 W/m2
23:52 25.0 °F 21.7 °F 29.98 in Calm     87% 0.00 in 0 W/m2
23:58 24.9 °F 21.6 °F 29.98 in Calm     87% 0.00 in 0 W/m2
Country Meadow, Clay, NY, USA
Compliments of Weather Underground - 2 mb